Time;durP1;ratioP1;P1;durP2;ratioP2;P2;SDS_P1;SDS_P2;PMS_P1;PMS_P2;Temp;Humidity;BMP_temperature;BMP_pressure;BME280_temperature;BME280_humidity;BME280_pressure;Samples;Min_cycle;Max_cycle;Signal;HPM_P1;HPM_P2
2021/04/26 00:02:15;;;;;;;;;;;;;;;3.84;100.00;100101.72;5090862;28;19957;-80
2021/04/26 00:04:52;;;;;;;;;;;;;;;3.79;100.00;100094.50;5111088;27;20364;-80
2021/04/26 00:07:31;;;;;;;;;;;;;;;3.74;100.00;100090.03;5111141;27;19912;-80
2021/04/26 00:10:10;;;;;;;;;;;;;;;3.75;100.00;100093.59;5135555;27;19916;-80
2021/04/26 00:12:49;;;;;;;;;;;;;;;3.65;100.00;100094.91;5111307;27;19916;-80
2021/04/26 00:15:28;;;;;;;;;;;;;;;3.62;100.00;100086.50;5058170;27;1531051;-80
2021/04/26 00:18:07;;;;;;;;;;;;;;;3.58;100.00;100089.19;5111196;27;20359;-80
2021/04/26 00:20:46;;;;;;;;;;;;;;;3.51;100.00;100088.19;5090785;28;19912;-80
2021/04/26 00:23:23;;;;;;;;;;;;;;;3.40;100.00;100081.56;5090955;28;19912;-79
2021/04/26 00:26:02;;;;;;;;;;;;;;;3.37;100.00;100082.25;5111174;27;19912;-80
2021/04/26 00:28:39;;;;;;;;;;;;;;;3.31;100.00;100084.47;5110928;27;20348;-80
2021/04/26 00:31:18;;;;;;;;;;;;;;;3.29;100.00;100084.00;5111322;27;19916;-80
2021/04/26 00:33:56;;;;;;;;;;;;;;;3.31;100.00;100075.38;5090588;28;19916;-80
2021/04/26 00:36:35;;;;;;;;;;;;;;;3.19;100.00;100080.94;5090759;27;19958;-80
2021/04/26 00:39:12;;;;;;;;;;;;;;;3.16;100.00;100071.41;5097540;27;19916;-80
2021/04/26 00:41:50;;;;;;;;;;;;;;;3.13;100.00;100077.63;5111379;27;19920;-80
2021/04/26 00:44:30;;;;;;;;;;;;;;;3.08;100.00;100074.28;5090910;28;19916;-80
2021/04/26 00:47:08;;;;;;;;;;;;;;;3.09;100.00;100073.16;5091108;28;19912;-80
2021/04/26 00:49:48;;;;;;;;;;;;;;;3.22;100.00;100074.72;5090863;28;19916;-79
2021/04/26 00:52:27;;;;;;;;;;;;;;;2.99;100.00;100081.91;5111287;27;19912;-80
2021/04/26 00:55:06;;;;;;;;;;;;;;;2.93;100.00;100067.56;5090772;28;19913;-80
2021/04/26 00:57:57;;;;;;;;;;;;;;;2.84;100.00;100075.16;5111045;27;19958;-80
2021/04/26 01:00:37;;;;;;;;;;;;;;;2.77;100.00;100079.66;5090896;28;20360;-80
2021/04/26 01:03:14;;;;;;;;;;;;;;;2.78;100.00;100075.75;5116057;27;19922;-80
2021/04/26 01:05:53;;;;;;;;;;;;;;;2.83;100.00;100083.81;5111133;27;20614;-80
2021/04/26 01:08:32;;;;;;;;;;;;;;;2.82;100.00;100080.22;5090860;28;19978;-80
2021/04/26 01:11:46;;;;;;;;;;;;;;;2.76;100.00;100073.34;5111142;27;19916;-80
2021/04/26 01:14:47;;;;;;;;;;;;;;;2.71;100.00;100072.78;5111186;27;19920;-80
2021/04/26 01:17:30;;;;;;;;;;;;;;;2.64;100.00;100080.81;5071275;28;19916;-80
2021/04/26 01:20:27;;;;;;;;;;;;;;;2.64;100.00;100073.34;5111205;27;19912;-80
2021/04/26 01:23:17;;;;;;;;;;;;;;;2.56;100.00;100074.28;5091012;28;19958;-80
2021/04/26 01:25:57;;;;;;;;;;;;;;;2.54;100.00;100061.97;5111028;27;19912;-80
2021/04/26 01:28:51;;;;;;;;;;;;;;;2.46;100.00;100049.09;5090820;28;19917;-80
2021/04/26 01:31:37;;;;;;;;;;;;;;;2.37;100.00;100053.94;5090798;28;19974;-80
2021/04/26 01:34:16;;;;;;;;;;;;;;;2.24;100.00;100039.38;5090701;28;20359;-80
2021/04/26 01:37:13;;;;;;;;;;;;;;;2.15;100.00;100040.63;5091045;28;19917;-80
2021/04/26 01:39:52;;;;;;;;;;;;;;;2.09;100.00;100036.50;5070467;28;19983;-80
2021/04/26 01:42:29;;;;;;;;;;;;;;;2.09;100.00;100025.47;5088746;27;1520251;-80
2021/04/26 01:45:09;;;;;;;;;;;;;;;2.09;100.00;100025.47;5090791;28;19920;-80
2021/04/26 01:47:51;;;;;;;;;;;;;;;2.04;100.00;100029.25;5090448;28;20268;-80
2021/04/26 01:50:31;;;;;;;;;;;;;;;2.04;100.00;100017.41;5090739;28;19916;-79
2021/04/26 01:53:10;;;;;;;;;;;;;;;2.00;100.00;100013.75;5090746;28;19916;-79
2021/04/26 01:55:49;;;;;;;;;;;;;;;1.98;100.00;100008.56;5090775;28;19916;-80
2021/04/26 01:58:40;;;;;;;;;;;;;;;1.94;100.00;100012.38;5110903;27;19920;-80
2021/04/26 02:01:20;;;;;;;;;;;;;;;1.89;100.00;100014.19;5138513;27;19920;-80
2021/04/26 02:04:01;;;;;;;;;;;;;;;1.81;100.00;100008.78;5090770;28;19917;-80
2021/04/26 02:07:12;;;;;;;;;;;;;;;1.84;100.00;100006.16;5090676;28;19921;-80
2021/04/26 02:10:15;;;;;;;;;;;;;;;1.83;100.00;100018.31;5090532;28;19974;-80
2021/04/26 02:13:06;;;;;;;;;;;;;;;1.80;100.00;100013.47;5111304;27;19957;-79
2021/04/26 02:15:48;;;;;;;;;;;;;;;1.78;100.00;100014.97;5111354;27;19912;-80
2021/04/26 02:18:26;;;;;;;;;;;;;;;1.71;100.00;100012.00;5090680;28;20361;-80
2021/04/26 02:21:16;;;;;;;;;;;;;;;1.67;100.00;100011.06;5111113;27;19913;-79
2021/04/26 02:23:55;;;;;;;;;;;;;;;1.62;100.00;100005.78;5090818;28;19912;-80
2021/04/26 02:26:36;;;;;;;;;;;;;;;1.62;100.00;100006.56;5111166;27;19912;-80
2021/04/26 02:29:14;;;;;;;;;;;;;;;1.58;100.00;100010.34;5090880;28;19913;-80
2021/04/26 02:31:55;;;;;;;;;;;;;;;1.59;100.00;100010.00;5074267;28;19920;-80
2021/04/26 02:34:42;;;;;;;;;;;;;;;1.67;100.00;100013.81;5091500;27;19966;-80
2021/04/26 02:37:23;;;;;;;;;;;;;;;1.62;100.00;100006.56;5111166;27;19912;-80
2021/04/26 02:40:06;;;;;;;;;;;;;;;1.62;100.00;100006.56;5090597;28;19912;-80
2021/04/26 02:42:47;;;;;;;;;;;;;;;1.54;100.00;100009.44;5111283;27;19912;-80
2021/04/26 02:45:28;;;;;;;;;;;;;;;1.46;100.00;100008.38;5111301;27;19912;-80
2021/04/26 02:48:06;;;;;;;;;;;;;;;1.44;100.00;100010.66;5090610;28;19916;-80
2021/04/26 02:50:53;;;;;;;;;;;;;;;1.39;100.00;99997.09;5070669;28;20241;-80
2021/04/26 02:53:32;;;;;;;;;;;;;;;1.42;100.00;100012.94;5100580;27;20428;-80
2021/04/26 02:56:16;;;;;;;;;;;;;;;1.43;100.00;100003.56;5090652;28;19913;-80
2021/04/26 02:59:09;;;;;;;;;;;;;;;1.37;100.00;100010.44;5111062;27;19916;-80
2021/04/26 03:01:50;;;;;;;;;;;;;;;1.30;100.00;100007.41;5090656;28;19971;-80
2021/04/26 03:04:33;;;;;;;;;;;;;;;1.23;100.00;99998.91;5090564;28;20309;-80
2021/04/26 03:07:14;;;;;;;;;;;;;;;1.15;100.00;99997.03;5100298;27;19920;-80
2021/04/26 03:10:05;;;;;;;;;;;;;;;1.04;100.00;99995.88;5090904;28;19912;-79
2021/04/26 03:12:46;;;;;;;;;;;;;;;0.99;100.00;99992.50;5111314;27;19965;-80
2021/04/26 03:15:26;;;;;;;;;;;;;;;1.00;100.00;99994.13;5090862;28;19916;-80
2021/04/26 03:18:05;;;;;;;;;;;;;;;1.00;100.00;99989.41;5090472;28;20352;-80
2021/04/26 03:20:45;;;;;;;;;;;;;;;0.82;100.00;99987.97;5111219;27;19916;-80
2021/04/26 03:23:26;;;;;;;;;;;;;;;0.67;100.00;99985.81;5090667;28;19912;-80
2021/04/26 03:26:19;;;;;;;;;;;;;;;0.60;100.00;99979.25;5111325;27;19912;-79
2021/04/26 03:28:59;;;;;;;;;;;;;;;0.48;100.00;99976.44;5090838;28;19913;-80
2021/04/26 03:31:39;;;;;;;;;;;;;;;0.39;100.00;99976.50;5090562;28;20439;-80
2021/04/26 03:34:26;;;;;;;;;;;;;;;0.42;100.00;99978.59;5111234;27;20441;-80
2021/04/26 03:37:06;;;;;;;;;;;;;;;0.23;100.00;99980.97;5110990;27;19916;-80
2021/04/26 03:39:46;;;;;;;;;;;;;;;0.21;100.00;99969.53;5090772;28;19965;-80
2021/04/26 03:42:26;;;;;;;;;;;;;;;0.14;100.00;99963.72;5090591;28;19917;-80
2021/04/26 03:45:06;;;;;;;;;;;;;;;0.09;100.00;99969.44;5090764;28;19974;-80
2021/04/26 03:47:50;;;;;;;;;;;;;;;0.00;100.00;99965.94;5111240;27;19916;-80
2021/04/26 03:50:49;;;;;;;;;;;;;;;-0.06;100.00;99973.56;5110796;27;20363;-80
2021/04/26 03:53:45;;;;;;;;;;;;;;;-0.07;100.00;99971.13;5018698;28;1510788;-80
2021/04/26 03:56:28;;;;;;;;;;;;;;;-0.11;100.00;99970.19;5017847;28;1532519;-80
2021/04/26 03:59:05;;;;;;;;;;;;;;;-0.13;100.00;99972.47;5110969;27;19920;-80
2021/04/26 04:01:46;;;;;;;;;;;;;;;-0.15;100.00;99963.72;5090729;28;19916;-79
2021/04/26 04:04:26;;;;;;;;;;;;;;;-0.03;100.00;99972.88;5090541;28;19916;-80
2021/04/26 04:07:23;;;;;;;;;;;;;;;0.00;100.00;99968.69;5111024;27;19916;-79
2021/04/26 04:10:20;;;;;;;;;;;;;;;-0.14;100.00;99959.88;5140727;27;19969;-80
2021/04/26 04:13:18;;;;;;;;;;;;;;;-0.29;100.00;99957.69;5090870;28;19916;-80
2021/04/26 04:15:57;;;;;;;;;;;;;;;-0.20;100.00;99951.00;5090469;28;19921;-80
2021/04/26 04:18:37;;;;;;;;;;;;;;;-0.10;100.00;99955.31;5090875;28;19912;-80
2021/04/26 04:21:16;;;;;;;;;;;;;;;-0.14;100.00;99949.66;5090504;28;19916;-80
2021/04/26 04:23:54;;;;;;;;;;;;;;;-0.01;100.00;99945.88;5111277;27;19912;-80
2021/04/26 04:26:31;;;;;;;;;;;;;;;0.05;100.00;99941.00;5111023;27;19916;-80
2021/04/26 04:29:19;;;;;;;;;;;;;;;0.02;100.00;99935.38;5090766;28;19920;-80
2021/04/26 04:32:06;;;;;;;;;;;;;;;0.07;100.00;99935.97;5111292;27;19927;-80
2021/04/26 04:35:08;;;;;;;;;;;;;;;-0.04;100.00;99932.00;5110831;27;19912;-80
2021/04/26 04:38:06;;;;;;;;;;;;;;;0.01;100.00;99929.06;5090675;28;20359;-80
2021/04/26 04:41:02;;;;;;;;;;;;;;;-0.04;100.00;99921.00;5111308;27;19916;-80
2021/04/26 04:43:42;;;;;;;;;;;;;;;-0.21;100.00;99921.09;5110950;27;19942;-80
2021/04/26 04:46:20;;;;;;;;;;;;;;;-0.16;100.00;99912.69;5111149;27;19916;-80
2021/04/26 04:49:22;;;;;;;;;;;;;;;-0.15;100.00;99906.88;5090614;28;19920;-80
2021/04/26 04:52:00;;;;;;;;;;;;;;;-0.10;100.00;99911.34;5111179;27;19916;-80
2021/04/26 04:54:38;;;;;;;;;;;;;;;-0.15;100.00;99908.78;5111134;27;19912;-79
2021/04/26 04:57:17;;;;;;;;;;;;;;;-0.28;100.00;99909.84;5111120;27;19916;-80
2021/04/26 04:59:55;;;;;;;;;;;;;;;-0.41;100.00;99910.91;5090827;28;19913;-80
2021/04/26 05:03:01;;;;;;;;;;;;;;;-0.38;100.00;99904.75;5031418;28;20309;-80
2021/04/26 05:05:46;;;;;;;;;;;;;;;-0.42;100.00;99914.75;5032474;28;19932;-80
2021/04/26 05:08:31;;;;;;;;;;;;;;;-0.46;100.00;99911.09;5028392;28;19925;-80
2021/04/26 05:11:17;;;;;;;;;;;;;;;-0.43;100.00;99910.41;5028310;28;20033;-80
2021/04/26 05:14:19;;;;;;;;;;;;;;;-0.46;100.00;99905.59;4984811;28;19926;-80
2021/04/26 05:16:46;;;;;;;;;;;;;;;-0.44;100.00;99906.06;4988929;28;19926;-80
2021/04/26 05:19:13;;;;;;;;;;;;;;;-0.11;100.00;99904.25;4988440;28;20034;-80
2021/04/26 05:21:40;;;;;;;;;;;;;;;0.28;100.00;99901.06;4988457;28;20068;-80
2021/04/26 05:24:07;;;;;;;;;;;;;;;0.47;100.00;99887.63;4972100;28;20366;-80
2021/04/26 05:26:35;;;;;;;;;;;;;;;0.42;100.00;99890.59;4971621;28;19926;-80
2021/04/26 05:29:02;;;;;;;;;;;;;;;0.43;100.00;99883.97;4988467;28;19932;-80
2021/04/26 05:31:29;;;;;;;;;;;;;;;0.31;100.00;99883.91;4971975;28;19969;-80
2021/04/26 05:33:57;;;;;;;;;;;;;;;0.81;100.00;99881.00;4982477;28;19930;-80
2021/04/26 05:36:37;;;;;;;;;;;;;;;1.72;100.00;99886.84;5007666;28;19933;-80
2021/04/26 05:39:04;;;;;;;;;;;;;;;2.77;100.00;99886.47;5007507;28;19925;-80
2021/04/26 05:41:33;;;;;;;;;;;;;;;3.43;100.00;99879.97;5002368;28;19980;-80
2021/04/26 05:44:00;;;;;;;;;;;;;;;3.65;100.00;99867.44;4999409;28;19961;-80
2021/04/26 05:46:33;;;;;;;;;;;;;;;3.74;100.00;99865.34;5003218;28;19925;-81
2021/04/26 05:48:59;;;;;;;;;;;;;;;3.90;100.00;99871.63;5067388;28;20067;-81
2021/04/26 05:51:38;;;;;;;;;;;;;;;3.89;100.00;99867.25;5127062;27;20183;-80
2021/04/26 05:54:17;;;;;;;;;;;;;;;3.81;100.00;99864.69;5068591;28;19959;-79
2021/04/26 05:56:56;;;;;;;;;;;;;;;4.16;100.00;99866.28;5136113;27;19920;-76
2021/04/26 05:59:34;;;;;;;;;;;;;;;3.93;100.00;99875.63;5076371;28;19917;-80
2021/04/26 06:02:13;;;;;;;;;;;;;;;3.66;100.00;99872.63;5078038;28;19916;-81
2021/04/26 06:04:50;;;;;;;;;;;;;;;3.85;100.00;99869.13;5093670;27;19979;-80
2021/04/26 06:07:31;;;;;;;;;;;;;;;3.41;100.00;99864.88;5077207;28;19938;-80
2021/04/26 06:10:20;;;;;;;;;;;;;;;2.94;100.00;99864.06;5099491;27;19962;-80
2021/04/26 06:12:58;;;;;;;;;;;;;;;2.63;100.00;99869.50;5106613;27;19970;-81
2021/04/26 06:15:37;;;;;;;;;;;;;;;2.80;100.00;99867.22;5086711;27;19924;-81
2021/04/26 06:18:16;;;;;;;;;;;;;;;3.06;100.00;99862.03;5086761;28;19912;-81
2021/04/26 06:21:06;;;;;;;;;;;;;;;3.76;100.00;99860.22;5107678;27;19992;-80
2021/04/26 06:23:45;;;;;;;;;;;;;;;4.20;100.00;99853.34;5148630;27;20455;-81
2021/04/26 06:26:23;;;;;;;;;;;;;;;4.79;100.00;99851.00;5148846;27;20653;-81
2021/04/26 06:29:03;;;;;;;;;;;;;;;5.39;100.00;99841.81;5109292;27;19916;-78
2021/04/26 06:31:41;;;;;;;;;;;;;;;6.19;100.00;99843.47;5089306;28;19916;-78
2021/04/26 06:34:19;;;;;;;;;;;;;;;6.90;100.00;99843.97;5111241;27;19912;-76
2021/04/26 06:36:57;;;;;;;;;;;;;;;8.00;100.00;99843.72;5070765;28;19963;-79
2021/04/26 06:39:36;;;;;;;;;;;;;;;9.13;100.00;99826.31;5110895;27;19916;-77
2021/04/26 06:42:25;;;;;;;;;;;;;;;10.01;100.00;99814.38;5109336;27;19912;-77
2021/04/26 06:45:04;;;;;;;;;;;;;;;10.21;100.00;99813.56;5110753;27;19927;-78
2021/04/26 06:47:54;;;;;;;;;;;;;;;10.27;100.00;99806.34;5110707;27;19912;-79
2021/04/26 06:50:32;;;;;;;;;;;;;;;10.17;100.00;99800.81;5085703;28;20526;-81
2021/04/26 06:53:31;;;;;;;;;;;;;;;10.22;100.00;99808.78;5085085;28;19916;-83
2021/04/26 06:56:16;;;;;;;;;;;;;;;9.79;100.00;99805.22;5087650;28;19913;-84
2021/04/26 06:59:00;;;;;;;;;;;;;;;10.01;100.00;99808.78;5078188;27;19913;-79
2021/04/26 07:01:51;;;;;;;;;;;;;;;10.44;100.00;99805.50;5100981;27;20072;-82
2021/04/26 07:04:35;;;;;;;;;;;;;;;9.79;100.00;99791.28;5087268;28;19966;-80
2021/04/26 07:07:15;;;;;;;;;;;;;;;8.85;100.00;99792.03;5079693;28;19928;-83
2021/04/26 07:09:55;;;;;;;;;;;;;;;9.79;100.00;99793.25;5072406;28;19929;-82
2021/04/26 07:12:36;;;;;;;;;;;;;;;9.21;100.00;99792.91;5085967;28;19973;-79
2021/04/26 07:15:17;;;;;;;;;;;;;;;8.07;100.00;99790.91;5082203;27;20379;-82
2021/04/26 07:18:24;;;;;;;;;;;;;;;7.83;100.00;99793.53;5098231;27;19966;-81
2021/04/26 07:21:03;;;;;;;;;;;;;;;8.69;100.00;99794.38;5113697;27;19920;-82
2021/04/26 07:23:44;;;;;;;;;;;;;;;8.87;100.00;99779.31;5077408;28;20536;-83
2021/04/26 07:26:23;;;;;;;;;;;;;;;8.39;100.00;99785.50;5088213;27;19974;-82
2021/04/26 07:29:02;;;;;;;;;;;;;;;8.60;100.00;99794.72;5107986;27;19912;-83
2021/04/26 07:31:45;;;;;;;;;;;;;;;8.25;100.00;99780.69;5085493;28;19912;-82
2021/04/26 07:34:27;;;;;;;;;;;;;;;8.18;100.00;99786.16;5136306;27;19920;-82
2021/04/26 07:37:05;;;;;;;;;;;;;;;7.75;100.00;99789.91;5087929;28;19916;-81
2021/04/26 07:39:46;;;;;;;;;;;;;;;7.77;100.00;99795.09;5068531;28;20287;-85
2021/04/26 07:42:29;;;;;;;;;;;;;;;8.51;100.00;99794.28;5068516;28;19917;-85
2021/04/26 07:45:33;;;;;;;;;;;;;;;9.19;100.00;99780.13;5087296;28;20309;-82
2021/04/26 07:48:24;;;;;;;;;;;;;;;9.60;100.00;99771.38;5104946;27;19912;-80
2021/04/26 07:51:02;;;;;;;;;;;;;;;10.29;100.00;99764.03;5106770;27;19916;-74
2021/04/26 07:53:41;;;;;;;;;;;;;;;9.88;100.00;99771.31;5100722;27;19912;-83
2021/04/26 07:56:20;;;;;;;;;;;;;;;9.45;100.00;99761.41;5088156;28;19912;-80
2021/04/26 07:59:03;;;;;;;;;;;;;;;9.93;100.00;99751.38;5084200;27;19917;-82
2021/04/26 08:01:50;;;;;;;;;;;;;;;9.42;100.00;99749.03;5028563;28;19967;-81
2021/04/26 08:04:37;;;;;;;;;;;;;;;9.47;100.00;99750.63;5033108;28;19946;-81
2021/04/26 08:07:24;;;;;;;;;;;;;;;9.85;100.00;99733.03;5038272;28;19924;-81
2021/04/26 08:10:11;;;;;;;;;;;;;;;9.73;100.00;99730.69;5028549;28;19965;-81
2021/04/26 08:12:59;;;;;;;;;;;;;;;9.91;100.00;99737.00;5027223;28;19968;-78
2021/04/26 08:15:45;;;;;;;;;;;;;;;10.56;100.00;99737.97;5026003;28;19933;-79
2021/04/26 08:18:32;;;;;;;;;;;;;;;11.25;100.00;99725.94;5010012;28;19977;-86
2021/04/26 08:21:19;;;;;;;;;;;;;;;11.15;100.00;99727.59;5039072;28;19932;-85
2021/04/26 08:24:06;;;;;;;;;;;;;;;9.40;100.00;99728.34;5045241;28;19948;-82
2021/04/26 08:26:54;;;;;;;;;;;;;;;9.93;100.00;99729.84;5050036;28;19931;-85
2021/04/26 08:29:41;;;;;;;;;;;;;;;10.70;100.00;99723.94;5030402;28;19925;-84
2021/04/26 08:32:28;;;;;;;;;;;;;;;10.50;100.00;99733.22;5027638;28;20343;-85
2021/04/26 08:35:15;;;;;;;;;;;;;;;9.94;100.00;99719.47;5014218;28;20296;-83
2021/04/26 08:38:02;;;;;;;;;;;;;;;9.75;100.00;99717.13;5023784;28;19932;-83
2021/04/26 08:40:49;;;;;;;;;;;;;;;9.91;100.00;99721.06;5049802;28;19930;-84
2021/04/26 08:43:35;;;;;;;;;;;;;;;9.80;100.00;99713.94;5041034;28;20394;-84
2021/04/26 08:46:22;;;;;;;;;;;;;;;10.27;100.00;99721.78;5042212;28;20273;-82
2021/04/26 08:49:10;;;;;;;;;;;;;;;9.70;100.00;99715.53;5055820;28;20295;-83
2021/04/26 08:51:57;;;;;;;;;;;;;;;9.47;100.00;99722.75;5061136;28;20363;-80
2021/04/26 08:54:44;;;;;;;;;;;;;;;9.84;100.00;99717.50;5036790;28;19931;-83
2021/04/26 08:57:31;;;;;;;;;;;;;;;10.64;100.00;99719.19;5049616;28;19936;-83
2021/04/26 09:00:21;;;;;;;;;;;;;;;10.07;100.00;99709.50;5045600;28;20408;-84
2021/04/26 09:03:08;;;;;;;;;;;;;;;9.26;100.00;99708.81;5031454;28;20259;-84
2021/04/26 09:05:40;;;;;;;;;;;;;;;9.54;100.00;99711.59;5064766;28;19925;-84
2021/04/26 09:08:12;;;;;;;;;;;;;;;10.35;100.00;99706.56;5066101;28;19925;-83
2021/04/26 09:10:48;;;;;;;;;;;;;;;10.27;100.00;99699.44;5064556;28;20769;-84
2021/04/26 09:13:24;;;;;;;;;;;;;;;9.78;100.00;99705.16;5071287;28;19932;-79
2021/04/26 09:15:58;;;;;;;;;;;;;;;10.32;100.00;99704.59;5068585;28;19955;-80
2021/04/26 09:18:44;;;;;;;;;;;;;;;10.46;100.00;99704.50;5073114;28;19925;-79
2021/04/26 09:21:12;;;;;;;;;;;;;;;9.43;100.00;99699.66;5071348;28;19971;-79
2021/04/26 09:23:39;;;;;;;;;;;;;;;9.84;100.00;99697.97;5073576;28;19924;-79
2021/04/26 09:26:22;;;;;;;;;;;;;;;10.48;100.00;99691.72;5070918;28;19925;-79
2021/04/26 09:29:07;;;;;;;;;;;;;;;10.13;100.00;99693.91;5073492;28;20413;-79
2021/04/26 09:31:34;;;;;;;;;;;;;;;10.33;100.00;99692.22;5087033;28;19931;-80
2021/04/26 09:34:00;;;;;;;;;;;;;;;10.21;100.00;99678.69;5073439;28;19932;-79
2021/04/26 09:36:31;;;;;;;;;;;;;;;10.78;100.00;99674.38;5071002;28;20031;-79
2021/04/26 09:39:04;;;;;;;;;;;;;;;11.10;100.00;99662.94;5105470;28;20429;-78
2021/04/26 09:41:32;;;;;;;;;;;;;;;11.39;100.00;99667.84;5075562;28;19928;-79
2021/04/26 09:43:59;;;;;;;;;;;;;;;11.24;100.00;99658.00;5065410;28;19925;-78
2021/04/26 09:46:45;;;;;;;;;;;;;;;10.49;100.00;99653.41;5055238;28;20280;-79
2021/04/26 09:49:12;;;;;;;;;;;;;;;10.10;100.00;99650.81;5054207;28;20390;-78
2021/04/26 09:51:40;;;;;;;;;;;;;;;9.60;100.00;99660.56;5055296;28;20266;-78
2021/04/26 09:54:07;;;;;;;;;;;;;;;10.26;100.00;99659.53;5054795;28;19968;-79
2021/04/26 09:56:38;;;;;;;;;;;;;;;10.79;100.00;99656.38;5071042;28;19925;-79
2021/04/26 09:59:05;;;;;;;;;;;;;;;10.63;100.00;99650.53;5056464;28;20061;-79
2021/04/26 10:01:33;;;;;;;;;;;;;;;11.05;100.00;99647.41;5055881;28;20275;-79
2021/04/26 10:04:01;;;;;;;;;;;;;;;11.30;100.00;99639.56;5056292;28;19925;-79
2021/04/26 10:06:28;;;;;;;;;;;;;;;11.42;100.00;99641.84;5057998;28;19925;-78
2021/04/26 10:09:02;;;;;;;;;;;;;;;11.40;100.00;99635.88;5076778;28;19932;-76
2021/04/26 10:11:30;;;;;;;;;;;;;;;11.27;100.00;99637.59;5049189;28;19956;-76
2021/04/26 10:14:02;;;;;;;;;;;;;;;11.17;100.00;99635.69;5072624;28;20383;-75
2021/04/26 10:16:37;;;;;;;;;;;;;;;11.33;100.00;99621.94;5070041;28;20347;-76
2021/04/26 10:19:05;;;;;;;;;;;;;;;10.51;100.00;99632.22;5056448;28;20019;-75
2021/04/26 10:21:33;;;;;;;;;;;;;;;10.26;100.00;99631.59;5077314;28;20015;-75
2021/04/26 10:24:17;;;;;;;;;;;;;;;10.81;100.00;99623.25;5056300;28;19924;-79
2021/04/26 10:26:52;;;;;;;;;;;;;;;10.67;100.00;99618.56;5056621;28;20276;-79
2021/04/26 10:29:23;;;;;;;;;;;;;;;10.80;100.00;99622.44;5049226;28;20308;-83
2021/04/26 10:31:56;;;;;;;;;;;;;;;10.96;100.00;99617.09;5042772;28;19929;-84
2021/04/26 10:34:23;;;;;;;;;;;;;;;11.04;100.00;99609.47;5053098;28;19978;-79
2021/04/26 10:36:56;;;;;;;;;;;;;;;11.35;100.00;99611.13;5054704;28;19925;-79
2021/04/26 10:39:23;;;;;;;;;;;;;;;11.07;100.00;99611.44;5055644;28;19924;-79
2021/04/26 10:41:52;;;;;;;;;;;;;;;11.27;100.00;99606.03;5054189;28;20019;-90
2021/04/26 10:44:42;;;;;;;;;;;;;;;11.37;100.00;99599.53;5064865;28;19925;-83
2021/04/26 10:47:24;;;;;;;;;;;;;;;11.18;100.00;99598.13;5062478;28;19960;-83
2021/04/26 10:49:53;;;;;;;;;;;;;;;11.19;100.00;99593.31;5062326;28;19947;-83
2021/04/26 10:52:35;;;;;;;;;;;;;;;11.45;100.00;99590.63;5069871;28;20042;-84
2021/04/26 10:55:05;;;;;;;;;;;;;;;11.50;100.00;99587.38;5061169;28;19978;-83
2021/04/26 10:57:45;;;;;;;;;;;;;;;11.48;100.00;99577.84;5060140;28;19925;-83
2021/04/26 11:00:21;;;;;;;;;;;;;;;11.83;100.00;99571.84;5075932;28;20561;-82
2021/04/26 11:02:52;;;;;;;;;;;;;;;11.70;100.00;99577.19;5065313;28;19925;-83
2021/04/26 11:05:26;;;;;;;;;;;;;;;11.79;100.00;99573.88;5059506;28;19929;-83
2021/04/26 11:07:57;;;;;;;;;;;;;;;11.40;100.00;99560.34;5041357;28;19931;-83
2021/04/26 11:10:26;;;;;;;;;;;;;;;11.59;100.00;99559.69;5092710;28;19974;-83
2021/04/26 11:14:02;;;;;;;;;;;;;;;11.63;100.00;99551.28;5110411;27;19920;-81
2021/04/26 11:16:55;;;;;;;;;;;;;;;11.85;100.00;99542.19;5096061;28;20011;-81
2021/04/26 11:19:23;;;;;;;;;;;;;;;11.76;100.00;99546.72;5119063;27;19927;-81
2021/04/26 11:21:50;;;;;;;;;;;;;;;11.59;100.00;99537.31;5082048;28;20387;-81
2021/04/26 11:24:24;;;;;;;;;;;;;;;11.62;100.00;99542.09;5086458;28;19931;-81
2021/04/26 11:27:13;;;;;;;;;;;;;;;11.70;100.00;99540.78;5099321;28;19924;-81
2021/04/26 11:29:44;;;;;;;;;;;;;;;11.99;100.00;99535.59;5084161;28;20452;-80
2021/04/26 11:32:11;;;;;;;;;;;;;;;12.11;100.00;99532.22;5094316;28;19963;-80
2021/04/26 11:35:01;;;;;;;;;;;;;;;12.28;100.00;99520.72;5071881;28;19925;-77
2021/04/26 11:37:37;;;;;;;;;;;;;;;12.44;100.00;99520.91;5078959;28;19928;-78
2021/04/26 11:40:17;;;;;;;;;;;;;;;12.35;100.00;99520.66;5091682;28;19931;-77
2021/04/26 11:42:46;;;;;;;;;;;;;;;11.58;100.00;99510.53;5089974;28;20015;-77
2021/04/26 11:45:22;;;;;;;;;;;;;;;11.74;100.00;99519.13;5071512;28;19968;-79
2021/04/26 11:47:57;;;;;;;;;;;;;;;12.06;100.00;99513.09;5093073;28;19990;-79
2021/04/26 11:50:30;;;;;;;;;;;;;;;11.91;100.00;99511.69;5087775;28;19973;-79
2021/04/26 11:52:56;;;;;;;;;;;;;;;12.11;100.00;99501.41;5108008;28;19924;-79
2021/04/26 11:55:27;;;;;;;;;;;;;;;11.98;100.00;99506.78;5104600;28;19924;-79
2021/04/26 11:57:57;;;;;;;;;;;;;;;12.03;100.00;99497.13;5100047;28;19931;-79
2021/04/26 12:00:25;;;;;;;;;;;;;;;12.32;100.00;99493.47;5104677;28;19924;-80
2021/04/26 12:03:00;;;;;;;;;;;;;;;11.98;100.00;99490.00;5098952;28;19928;-79
2021/04/26 12:05:26;;;;;;;;;;;;;;;11.84;100.00;99495.81;5104595;28;19959;-79
2021/04/26 12:07:54;;;;;;;;;;;;;;;12.13;100.00;99482.19;5099324;28;19925;-80
2021/04/26 12:10:22;;;;;;;;;;;;;;;12.06;100.00;99476.66;5090751;28;19925;-79
2021/04/26 12:12:53;;;;;;;;;;;;;;;11.90;100.00;99488.53;5095405;28;20023;-79
2021/04/26 12:15:24;;;;;;;;;;;;;;;11.71;100.00;99478.00;5103899;28;19924;-79
2021/04/26 12:17:53;;;;;;;;;;;;;;;11.91;100.00;99470.50;5101389;28;19924;-79
2021/04/26 12:20:24;;;;;;;;;;;;;;;11.89;100.00;99458.91;5102756;28;20287;-80
2021/04/26 12:22:55;;;;;;;;;;;;;;;11.98;100.00;99456.38;5100402;28;19924;-79
2021/04/26 12:25:23;;;;;;;;;;;;;;;12.07;100.00;99445.44;5087836;28;19939;-79
2021/04/26 12:28:00;;;;;;;;;;;;;;;11.77;100.00;99450.34;5071434;28;19924;-80
2021/04/26 12:30:27;;;;;;;;;;;;;;;11.94;100.00;99441.66;5087998;28;19939;-80
2021/04/26 12:32:55;;;;;;;;;;;;;;;11.70;100.00;99430.81;5089176;28;19924;-79
2021/04/26 12:35:46;;;;;;;;;;;;;;;11.94;100.00;99433.25;5084541;28;19956;-79
2021/04/26 12:38:13;;;;;;;;;;;;;;;12.15;100.00;99427.31;5084305;28;19928;-79
2021/04/26 12:40:40;;;;;;;;;;;;;;;11.83;100.00;99415.81;5075622;28;20298;-79
2021/04/26 12:43:09;;;;;;;;;;;;;;;11.91;100.00;99411.69;5057871;28;19924;-79
2021/04/26 12:45:37;;;;;;;;;;;;;;;12.11;100.00;99415.38;5091213;28;20029;-80
2021/04/26 12:48:08;;;;;;;;;;;;;;;12.31;100.00;99407.81;5057607;28;19970;-79
2021/04/26 12:50:45;;;;;;;;;;;;;;;12.15;100.00;99410.50;5074360;28;20298;-79
2021/04/26 12:53:15;;;;;;;;;;;;;;;12.31;100.00;99404.22;5057599;28;20272;-79
2021/04/26 12:55:44;;;;;;;;;;;;;;;12.12;100.00;99390.94;5075288;28;20423;-79
2021/04/26 12:58:13;;;;;;;;;;;;;;;12.09;100.00;99389.78;5075408;28;19924;-79
2021/04/26 13:00:43;;;;;;;;;;;;;;;12.10;100.00;99388.56;5075306;28;20429;-77
2021/04/26 13:03:19;;;;;;;;;;;;;;;12.22;100.00;99395.59;5075061;28;19931;-79
2021/04/26 13:05:48;;;;;;;;;;;;;;;12.59;100.00;99396.09;5086122;28;20272;-79
2021/04/26 13:08:16;;;;;;;;;;;;;;;11.92;100.00;99384.50;5090754;28;19935;-78
2021/04/26 13:10:42;;;;;;;;;;;;;;;11.98;100.00;99386.38;5091609;28;19928;-78
2021/04/26 13:13:09;;;;;;;;;;;;;;;11.82;100.00;99382.66;5051479;28;20315;-77
2021/04/26 13:15:36;;;;;;;;;;;;;;;12.11;100.00;99376.16;5051680;28;20556;-78
2021/04/26 13:18:13;;;;;;;;;;;;;;;11.97;100.00;99358.78;5047993;28;19936;-78
2021/04/26 13:20:40;;;;;;;;;;;;;;;12.19;100.00;99371.22;5050436;28;20412;-78
2021/04/26 13:23:17;;;;;;;;;;;;;;;12.27;100.00;99358.66;5047034;28;19929;-78
2021/04/26 13:25:44;;;;;;;;;;;;;;;12.54;100.00;99360.16;5051652;28;19988;-78
2021/04/26 13:28:31;;;;;;;;;;;;;;;12.48;100.00;99355.50;5048066;28;19929;-77
2021/04/26 13:30:59;;;;;;;;;;;;;;;12.44;100.00;99349.94;5051399;28;19925;-78
2021/04/26 13:33:26;;;;;;;;;;;;;;;12.56;100.00;99354.91;5046703;28;20528;-77
2021/04/26 13:35:54;;;;;;;;;;;;;;;12.19;100.00;99341.19;5046805;28;20007;-79
2021/04/26 13:38:21;;;;;;;;;;;;;;;12.15;100.00;99334.88;5046330;28;19925;-78
2021/04/26 13:40:49;;;;;;;;;;;;;;;12.68;100.00;99336.66;5019669;28;19925;-78
2021/04/26 13:43:17;;;;;;;;;;;;;;;12.93;100.00;99324.94;5034547;28;19933;-79